Time;durP1;ratioP1;P1;durP2;ratioP2;P2;SDS_P1;SDS_P2;PMS_P1;PMS_P2;Temp;Humidity;BMP_temperature;BMP_pressure;BME280_temperature;BME280_humidity;BME280_pressure;Samples;Min_cycle;Max_cycle;Signal;HPM_P1;HPM_P2
2022/08/20 00:00:30;;;;;;;22.32;9.23;;;;;;;;;;1571013;91;21057;-82
2022/08/20 00:03:02;;;;;;;17.60;8.93;;;;;;;;;;1571044;91;21013;-82
2022/08/20 00:05:32;;;;;;;22.20;9.10;;;;;;;;;;1545846;91;21024;-82
2022/08/20 00:07:59;;;;;;;23.70;8.88;;;;;;;;;;1443927;99;21081;-81
2022/08/20 00:10:26;;;;;;;19.60;9.33;;;;;;;;;;1443885;99;21014;-82
2022/08/20 00:12:52;;;;;;;27.00;10.03;;;;;;;;;;1441106;99;21568;-82
2022/08/20 00:15:20;;;;;;;20.43;9.95;;;;;;;;;;1434657;100;21620;-82
2022/08/20 00:20:18;;;;;;;23.95;10.15;;;;;;;;;;1433143;98;21139;-82
2022/08/20 00:22:44;;;;;;;22.25;10.40;;;;;;;;;;1433204;100;21495;-81
2022/08/20 00:25:11;;;;;;;22.62;10.55;;;;;;;;;;1433659;100;21801;-81
2022/08/20 00:27:37;;;;;;;25.88;11.40;;;;;;;;;;1433354;100;21580;-81
2022/08/20 00:30:06;;;;;;;23.95;9.85;;;;;;;;;;1433405;100;20929;-81
2022/08/20 00:32:43;;;;;;;19.12;9.83;;;;;;;;;;1476180;95;21615;-82
2022/08/20 00:35:09;;;;;;;24.87;10.28;;;;;;;;;;1498344;94;21113;-81
2022/08/20 00:37:35;;;;;;;29.30;10.25;;;;;;;;;;1481229;95;21139;-81
2022/08/20 00:40:02;;;;;;;25.10;10.95;;;;;;;;;;1499815;95;20942;-82
2022/08/20 00:42:28;;;;;;;25.08;11.05;;;;;;;;;;1499571;94;21081;-79
2022/08/20 00:44:53;;;;;;;24.23;10.95;;;;;;;;;;1499825;95;20993;-82
2022/08/20 00:47:19;;;;;;;23.40;10.78;;;;;;;;;;1499562;95;21045;-82
2022/08/20 00:49:45;;;;;;;24.80;11.15;;;;;;;;;;1499722;95;21045;-81
2022/08/20 00:52:15;;;;;;;24.55;10.82;;;;;;;;;;1500724;95;21013;-81
2022/08/20 00:54:44;;;;;;;29.87;11.83;;;;;;;;;;1505759;94;20990;-81
2022/08/20 00:57:16;;;;;;;25.72;11.53;;;;;;;;;;1512666;95;21041;-82
2022/08/20 00:59:42;;;;;;;24.80;11.63;;;;;;;;;;1510758;93;21058;-82
2022/08/20 01:02:12;;;;;;;27.42;11.20;;;;;;;;;;1513045;93;20950;-82
2022/08/20 01:04:37;;;;;;;28.60;11.28;;;;;;;;;;1539708;89;21071;-81
2022/08/20 01:07:04;;;;;;;31.07;11.83;;;;;;;;;;1579524;89;21699;-81
2022/08/20 01:09:31;;;;;;;26.42;12.75;;;;;;;;;;1618200;88;20987;-81
2022/08/20 01:11:56;;;;;;;34.88;12.20;;;;;;;;;;1630395;88;21018;-81
2022/08/20 01:17:05;;;;;;;29.92;12.25;;;;;;;;;;1653462;85;20952;-81
2022/08/20 01:19:34;;;;;;;31.50;12.15;;;;;;;;;;1683793;84;20932;-82
2022/08/20 01:22:01;;;;;;;29.75;12.13;;;;;;;;;;1680145;85;21444;-82
2022/08/20 01:24:33;;;;;;;26.73;12.15;;;;;;;;;;1683544;85;21288;-82
2022/08/20 01:27:00;;;;;;;27.73;11.67;;;;;;;;;;1681369;85;21023;-81
2022/08/20 01:29:30;;;;;;;28.42;11.45;;;;;;;;;;1683565;85;21638;-81
2022/08/20 01:32:00;;;;;;;34.20;13.32;;;;;;;;;;1668931;85;21413;-82
2022/08/20 01:34:23;;;;;;;29.48;12.23;;;;;;;;;;1652471;86;22207;-81
2022/08/20 01:36:51;;;;;;;29.85;12.55;;;;;;;;;;1636797;85;20939;-82
2022/08/20 01:39:21;;;;;;;30.30;12.28;;;;;;;;;;1629471;88;20980;-82
2022/08/20 01:41:50;;;;;;;30.10;11.45;;;;;;;;;;1629251;88;21230;-82
2022/08/20 01:44:17;;;;;;;31.55;11.97;;;;;;;;;;1626571;88;20996;-82
2022/08/20 01:46:44;;;;;;;26.12;11.53;;;;;;;;;;1629204;88;20982;-82
2022/08/20 01:49:13;;;;;;;31.07;11.35;;;;;;;;;;1653445;86;21014;-82
2022/08/20 01:51:40;;;;;;;32.40;11.65;;;;;;;;;;1656073;86;20979;-81
2022/08/20 01:54:06;;;;;;;29.65;12.15;;;;;;;;;;1655723;85;21034;-81
2022/08/20 01:56:33;;;;;;;28.30;12.03;;;;;;;;;;1650980;87;21023;-82
2022/08/20 01:59:04;;;;;;;27.55;11.40;;;;;;;;;;1651060;87;21014;-82
2022/08/20 02:01:33;;;;;;;27.30;11.68;;;;;;;;;;1650514;87;20983;-82
2022/08/20 02:04:01;;;;;;;31.95;11.15;;;;;;;;;;1651062;87;21014;-82
2022/08/20 02:06:29;;;;;;;35.48;11.65;;;;;;;;;;1650615;87;20967;-82
2022/08/20 02:08:58;;;;;;;26.00;11.12;;;;;;;;;;1651169;87;20857;-82
2022/08/20 02:11:25;;;;;;;27.37;11.33;;;;;;;;;;1630077;87;20915;-81
2022/08/20 02:13:52;;;;;;;25.57;11.18;;;;;;;;;;1651010;87;21471;-82
2022/08/20 02:16:24;;;;;;;34.78;11.20;;;;;;;;;;1650913;87;20900;-82
2022/08/20 02:21:21;;;;;;;27.75;10.50;;;;;;;;;;1619890;88;21099;-82
2022/08/20 02:23:48;;;;;;;31.17;10.70;;;;;;;;;;1620104;88;21457;-82
2022/08/20 02:26:17;;;;;;;35.85;11.33;;;;;;;;;;1620051;88;20992;-81
2022/08/20 02:28:41;;;;;;;33.48;10.68;;;;;;;;;;1619559;88;21015;-82
2022/08/20 02:31:07;;;;;;;36.08;11.03;;;;;;;;;;1620232;88;21031;-81
2022/08/20 02:33:33;;;;;;;30.20;10.35;;;;;;;;;;1620102;88;21681;-82
2022/08/20 02:35:59;;;;;;;32.78;10.55;;;;;;;;;;1620054;88;20910;-82
2022/08/20 02:38:24;;;;;;;34.88;10.45;;;;;;;;;;1619965;88;21047;-82
2022/08/20 02:40:51;;;;;;;38.00;10.93;;;;;;;;;;1620130;88;21059;-82
2022/08/20 02:43:18;;;;;;;39.42;10.58;;;;;;;;;;1620111;88;20964;-81
2022/08/20 02:45:44;;;;;;;35.63;10.70;;;;;;;;;;1619848;88;21019;-81
2022/08/20 02:48:19;;;;;;;42.75;10.72;;;;;;;;;;1620016;88;20913;-81
2022/08/20 02:50:43;;;;;;;39.53;10.80;;;;;;;;;;1620019;88;21491;-80
2022/08/20 02:53:08;;;;;;;33.35;10.15;;;;;;;;;;1619838;88;21040;-81
2022/08/20 02:55:34;;;;;;;41.23;10.55;;;;;;;;;;1611308;88;21050;-82
2022/08/20 02:58:00;;;;;;;38.92;9.63;;;;;;;;;;1583715;89;20985;-82
2022/08/20 03:00:29;;;;;;;33.75;9.23;;;;;;;;;;1604786;89;20965;-81
2022/08/20 03:02:55;;;;;;;31.68;9.05;;;;;;;;;;1604546;89;21048;-81
2022/08/20 03:05:21;;;;;;;42.62;9.60;;;;;;;;;;1604866;89;21037;-82
2022/08/20 03:07:52;;;;;;;35.60;9.50;;;;;;;;;;1592651;89;20937;-82
2022/08/20 03:10:19;;;;;;;41.90;10.70;;;;;;;;;;1580953;89;21021;-78
2022/08/20 03:12:45;;;;;;;36.98;9.30;;;;;;;;;;1575818;89;21067;-81
2022/08/20 03:15:11;;;;;;;39.85;8.83;;;;;;;;;;1590391;88;21435;-82
2022/08/20 03:17:37;;;;;;;34.08;8.65;;;;;;;;;;1633469;85;21643;-81
2022/08/20 03:20:07;;;;;;;27.02;9.08;;;;;;;;;;1689375;84;20892;-80
2022/08/20 03:22:34;;;;;;;37.83;9.38;;;;;;;;;;1695946;83;21420;-82
2022/08/20 03:24:59;;;;;;;38.45;9.50;;;;;;;;;;1695160;83;20920;-81
2022/08/20 03:27:25;;;;;;;39.18;8.80;;;;;;;;;;1686763;84;21030;-82
2022/08/20 03:29:51;;;;;;;34.80;8.65;;;;;;;;;;1691243;84;20930;-81
2022/08/20 03:32:17;;;;;;;33.55;8.48;;;;;;;;;;1690662;83;20903;-80
2022/08/20 03:34:43;;;;;;;45.17;9.18;;;;;;;;;;1687137;84;20995;-79
2022/08/20 03:37:10;;;;;;;46.37;9.15;;;;;;;;;;1687484;84;21612;-79
2022/08/20 03:39:37;;;;;;;44.75;8.55;;;;;;;;;;1687220;84;20955;-80
2022/08/20 03:42:03;;;;;;;35.05;7.83;;;;;;;;;;1691262;84;20966;-83
2022/08/20 03:44:29;;;;;;;42.25;9.58;;;;;;;;;;1691283;84;21030;-82
2022/08/20 03:46:55;;;;;;;44.80;8.73;;;;;;;;;;1689835;84;20926;-78
2022/08/20 03:49:23;;;;;;;36.73;8.73;;;;;;;;;;1691066;84;20962;-81
2022/08/20 03:51:49;;;;;;;44.50;8.78;;;;;;;;;;1689275;85;21475;-81
2022/08/20 03:54:15;;;;;;;39.13;9.03;;;;;;;;;;1688558;84;21459;-78
2022/08/20 03:56:41;;;;;;;36.28;8.98;;;;;;;;;;1655177;84;21628;-79
2022/08/20 03:59:07;;;;;;;34.88;9.03;;;;;;;;;;1655263;85;20999;-80
2022/08/20 04:01:33;;;;;;;33.65;8.15;;;;;;;;;;1665619;85;21000;-83
2022/08/20 04:03:59;;;;;;;46.37;8.53;;;;;;;;;;1659453;85;21015;-78
2022/08/20 04:06:28;;;;;;;40.90;9.30;;;;;;;;;;1650942;85;21027;-80
2022/08/20 04:08:54;;;;;;;40.33;8.93;;;;;;;;;;1651688;85;20991;-82
2022/08/20 04:11:20;;;;;;;52.38;8.95;;;;;;;;;;1651277;85;21026;-80
2022/08/20 04:13:46;;;;;;;42.45;8.98;;;;;;;;;;1656085;85;20892;-80
2022/08/20 04:16:12;;;;;;;35.03;9.00;;;;;;;;;;1657921;85;20904;-81
2022/08/20 04:18:38;;;;;;;40.73;8.13;;;;;;;;;;1652312;85;20992;-81
2022/08/20 04:23:31;;;;;;;43.33;7.95;;;;;;;;;;1633006;86;20992;-79
2022/08/20 04:25:57;;;;;;;48.13;8.05;;;;;;;;;;1634306;87;21570;-78
2022/08/20 04:28:26;;;;;;;43.90;8.13;;;;;;;;;;1628170;87;21001;-80
2022/08/20 04:30:56;;;;;;;55.70;9.08;;;;;;;;;;1633396;87;20961;-79
2022/08/20 04:33:23;;;;;;;43.42;8.38;;;;;;;;;;1628322;87;21538;-80
2022/08/20 04:35:50;;;;;;;46.30;8.48;;;;;;;;;;1636779;87;20995;-81
2022/08/20 04:38:17;;;;;;;49.95;9.15;;;;;;;;;;1627818;87;20937;-79
2022/08/20 04:40:52;;;;;;;51.55;8.40;;;;;;;;;;1635022;87;20981;-80
2022/08/20 04:43:25;;;;;;;62.25;9.50;;;;;;;;;;1631694;87;20974;-84
2022/08/20 04:45:51;;;;;;;60.23;8.13;;;;;;;;;;1632010;87;20992;-79
2022/08/20 04:48:19;;;;;;;49.45;8.55;;;;;;;;;;1633276;87;21026;-81
2022/08/20 04:50:45;;;;;;;42.93;8.53;;;;;;;;;;1632368;88;22275;-81
2022/08/20 04:53:15;;;;;;;63.92;8.83;;;;;;;;;;1631912;87;21005;-82
2022/08/20 04:55:42;;;;;;;49.42;8.30;;;;;;;;;;1635854;86;21491;-82
2022/08/20 04:58:11;;;;;;;66.12;8.70;;;;;;;;;;1657741;84;21072;-81
2022/08/20 05:00:37;;;;;;;58.50;8.40;;;;;;;;;;1659899;85;20960;-81
2022/08/20 05:03:05;;;;;;;53.15;8.08;;;;;;;;;;1661275;84;21044;-78
2022/08/20 05:05:34;;;;;;;54.67;8.65;;;;;;;;;;1660937;85;21718;-81
2022/08/20 05:08:01;;;;;;;47.88;8.78;;;;;;;;;;1655961;85;21016;-80
2022/08/20 05:10:27;;;;;;;50.10;8.93;;;;;;;;;;1661598;85;20944;-81
2022/08/20 05:12:57;;;;;;;60.12;8.23;;;;;;;;;;1664065;85;20984;-81
2022/08/20 05:15:23;;;;;;;64.27;8.93;;;;;;;;;;1663148;85;21091;-81
2022/08/20 05:17:52;;;;;;;65.62;9.33;;;;;;;;;;1658755;85;21555;-81
2022/08/20 05:20:18;;;;;;;62.43;8.63;;;;;;;;;;1653906;85;20992;-81
2022/08/20 05:22:44;;;;;;;57.38;8.48;;;;;;;;;;1669068;85;21475;-83
2022/08/20 05:25:10;;;;;;;63.45;9.03;;;;;;;;;;1643688;86;21090;-81
2022/08/20 05:27:36;;;;;;;63.90;8.00;;;;;;;;;;1649413;86;21507;-82
2022/08/20 05:30:08;;;;;;;62.40;9.50;;;;;;;;;;1689826;84;20915;-82
2022/08/20 05:32:34;;;;;;;70.05;8.25;;;;;;;;;;1690908;84;21050;-80
2022/08/20 05:35:02;;;;;;;61.53;8.58;;;;;;;;;;1690892;85;20907;-79
2022/08/20 05:37:30;;;;;;;55.92;7.92;;;;;;;;;;1691975;84;40334;-82
2022/08/20 05:39:56;;;;;;;61.28;8.78;;;;;;;;;;1694991;84;21108;-81
2022/08/20 05:42:22;;;;;;;61.15;8.00;;;;;;;;;;1673711;84;20995;-78
2022/08/20 05:44:48;;;;;;;55.85;7.75;;;;;;;;;;1676186;85;21011;-80
2022/08/20 05:47:14;;;;;;;65.57;9.15;;;;;;;;;;1700863;84;21019;-80
2022/08/20 05:49:40;;;;;;;62.13;8.43;;;;;;;;;;1705719;84;21693;-79
2022/08/20 05:52:06;;;;;;;65.72;8.73;;;;;;;;;;1700873;84;20959;-80
2022/08/20 05:54:32;;;;;;;57.67;8.90;;;;;;;;;;1694972;84;21676;-82
2022/08/20 05:56:58;;;;;;;50.05;7.92;;;;;;;;;;1678551;83;21674;-83
2022/08/20 05:59:25;;;;;;;65.35;8.68;;;;;;;;;;1679542;84;20971;-81
2022/08/20 06:01:51;;;;;;;61.75;8.80;;;;;;;;;;1680684;84;21038;-82
2022/08/20 06:04:23;;;;;;;62.20;9.38;;;;;;;;;;1667195;85;20995;-82
2022/08/20 06:06:51;;;;;;;65.70;8.45;;;;;;;;;;1669891;84;20972;-83
2022/08/20 06:09:19;;;;;;;70.05;10.93;;;;;;;;;;1678791;84;20979;-82
2022/08/20 06:11:45;;;;;;;55.67;8.43;;;;;;;;;;1681598;85;21496;-81
2022/08/20 06:14:11;;;;;;;50.75;7.45;;;;;;;;;;1654500;86;20865;-82
2022/08/20 06:16:37;;;;;;;78.40;8.83;;;;;;;;;;1674340;85;21653;-82
2022/08/20 06:19:04;;;;;;;57.58;8.55;;;;;;;;;;1676519;85;20979;-83
2022/08/20 06:21:30;;;;;;;59.00;8.58;;;;;;;;;;1676607;85;20948;-78
2022/08/20 06:23:56;;;;;;;60.75;8.73;;;;;;;;;;1679706;83;20946;-80
2022/08/20 06:26:22;;;;;;;49.93;8.08;;;;;;;;;;1677964;84;21705;-82
2022/08/20 06:28:48;;;;;;;51.75;9.85;;;;;;;;;;1685404;84;21019;-82
2022/08/20 06:31:14;;;;;;;46.15;8.55;;;;;;;;;;1686926;84;20872;-82
2022/08/20 06:33:40;;;;;;;51.58;9.13;;;;;;;;;;1679271;85;20837;-82
2022/08/20 06:36:07;;;;;;;56.13;9.15;;;;;;;;;;1679971;85;20983;-84
2022/08/20 06:38:32;;;;;;;53.83;9.30;;;;;;;;;;1681409;85;20959;-88
2022/08/20 06:40:58;;;;;;;51.25;7.85;;;;;;;;;;1678536;84;21977;-79
2022/08/20 06:43:24;;;;;;;54.93;8.88;;;;;;;;;;1679526;85;21309;-83
2022/08/20 06:45:51;;;;;;;56.68;9.68;;;;;;;;;;1682462;85;20944;-79
2022/08/20 06:48:17;;;;;;;48.92;9.63;;;;;;;;;;1681233;85;20947;-81
2022/08/20 06:50:45;;;;;;;57.55;9.28;;;;;;;;;;1682884;85;21121;-79
2022/08/20 06:53:13;;;;;;;60.63;9.38;;;;;;;;;;1681920;83;20978;-80
2022/08/20 06:55:42;;;;;;;63.58;9.30;;;;;;;;;;1681011;83;21136;-79
2022/08/20 06:58:10;;;;;;;69.17;10.08;;;;;;;;;;1682104;85;20954;-83
2022/08/20 07:00:37;;;;;;;53.17;8.78;;;;;;;;;;1684759;83;21522;-81
2022/08/20 07:03:03;;;;;;;55.38;8.20;;;;;;;;;;1679313;84;21006;-80
2022/08/20 07:05:33;;;;;;;46.00;8.40;;;;;;;;;;1682037;84;21038;-80
2022/08/20 07:07:59;;;;;;;52.30;9.10;;;;;;;;;;1652901;85;21523;-83
2022/08/20 07:10:27;;;;;;;61.70;9.60;;;;;;;;;;1677492;84;20951;-83
2022/08/20 07:12:53;;;;;;;49.98;8.73;;;;;;;;;;1659646;85;21053;-80
2022/08/20 07:15:25;;;;;;;70.45;8.50;;;;;;;;;;1675468;83;21043;-83
2022/08/20 07:17:53;;;;;;;66.28;9.48;;;;;;;;;;1681609;83;21028;-80
2022/08/20 07:20:20;;;;;;;67.75;9.28;;;;;;;;;;1672707;84;20981;-80
2022/08/20 07:22:46;;;;;;;60.85;8.08;;;;;;;;;;1679200;85;20984;-81
2022/08/20 07:25:14;;;;;;;59.88;9.08;;;;;;;;;;1676892;83;21042;-83
2022/08/20 07:27:41;;;;;;;45.20;8.25;;;;;;;;;;1679805;84;21526;-83
2022/08/20 07:32:54;;;;;;;57.75;9.40;;;;;;;;;;1661705;84;21003;-82
2022/08/20 07:35:20;;;;;;;53.50;8.63;;;;;;;;;;1656880;84;21684;-81
2022/08/20 07:37:48;;;;;;;36.93;8.53;;;;;;;;;;1652677;86;21061;-81
2022/08/20 07:40:17;;;;;;;53.45;9.23;;;;;;;;;;1652859;87;20956;-81
2022/08/20 07:42:43;;;;;;;46.50;7.60;;;;;;;;;;1605134;87;21096;-83
2022/08/20 07:45:12;;;;;;;50.65;7.87;;;;;;;;;;1633014;87;20987;-80
2022/08/20 07:47:41;;;;;;;46.53;7.62;;;;;;;;;;1614432;87;21027;-81
2022/08/20 07:52:42;;;;;;;43.70;7.97;;;;;;;;;;1405428;101;21096;-82
2022/08/20 07:55:10;;;;;;;49.20;7.05;;;;;;;;;;1399947;101;22168;-81
2022/08/20 07:57:37;;;;;;;40.43;7.95;;;;;;;;;;1371798;104;21127;-82
2022/08/20 08:00:07;;;;;;;45.63;7.72;;;;;;;;;;1373842;103;21070;-84
2022/08/20 08:02:34;;;;;;;45.98;7.62;;;;;;;;;;1373448;104;21115;-83
2022/08/20 08:05:00;;;;;;;38.13;7.35;;;;;;;;;;1373534;104;21121;-84
2022/08/20 08:07:27;;;;;;;44.90;7.72;;;;;;;;;;1373619;102;21780;-81
2022/08/20 08:09:56;;;;;;;46.18;8.00;;;;;;;;;;1380631;103;21317;-83
2022/08/20 08:12:22;;;;;;;45.83;7.80;;;;;;;;;;1384409;103;21654;-83
2022/08/20 08:14:49;;;;;;;38.60;7.47;;;;;;;;;;1383987;103;21088;-82
2022/08/20 08:19:47;;;;;;;35.08;7.25;;;;;;;;;;1347568;106;21636;-84
2022/08/20 08:22:16;;;;;;;45.43;7.25;;;;;;;;;;1337509;107;21123;-84
2022/08/20 08:24:45;;;;;;;51.40;8.18;;;;;;;;;;1337644;107;21161;-82
2022/08/20 08:27:11;;;;;;;46.30;7.62;;;;;;;;;;1337222;106;21155;-82
2022/08/20 08:29:37;;;;;;;38.33;6.92;;;;;;;;;;1345404;106;20989;-80
2022/08/20 08:32:04;;;;;;;44.93;7.15;;;;;;;;;;1337728;107;21643;-84
2022/08/20 08:34:31;;;;;;;44.55;7.58;;;;;;;;;;1337907;107;21069;-83
2022/08/20 08:36:57;;;;;;;35.58;7.05;;;;;;;;;;1342100;106;21771;-83
2022/08/20 08:39:23;;;;;;;34.60;7.12;;;;;;;;;;1349466;105;21149;-83
2022/08/20 08:41:50;;;;;;;35.40;7.40;;;;;;;;;;1357229;105;22105;-85
2022/08/20 08:44:25;;;;;;;36.38;6.95;;;;;;;;;;1357347;105;21112;-86
2022/08/20 08:46:57;;;;;;;33.80;7.05;;;;;;;;;;1389994;98;21077;-85
2022/08/20 08:49:29;;;;;;;37.42;7.28;;;;;;;;;;1471265;93;21046;-86
2022/08/20 08:52:03;;;;;;;41.83;7.22;;;;;;;;;;1471783;96;21028;-87
2022/08/20 08:54:30;;;;;;;35.85;7.08;;;;;;;;;;1508996;90;21117;-87
2022/08/20 08:56:58;;;;;;;39.05;7.03;;;;;;;;;;1564376;89;21590;-84
2022/08/20 08:59:26;;;;;;;44.25;8.10;;;;;;;;;;1579120;89;21589;-85
2022/08/20 09:01:55;;;;;;;57.88;7.15;;;;;;;;;;1579162;89;21037;-85
2022/08/20 09:04:21;;;;;;;43.17;7.65;;;;;;;;;;1578877;89;20987;-85
2022/08/20 09:06:52;;;;;;;47.67;7.62;;;;;;;;;;1579632;88;21023;-85
2022/08/20 09:09:20;;;;;;;48.87;7.70;;;;;;;;;;1583190;88;22052;-87
2022/08/20 09:11:49;;;;;;;46.65;7.85;;;;;;;;;;1584343;88;21059;-87
2022/08/20 09:14:14;;;;;;;43.65;7.42;;;;;;;;;;1582102;88;21625;-86
2022/08/20 09:16:40;;;;;;;35.95;7.25;;;;;;;;;;1582807;88;21035;-86
2022/08/20 09:19:06;;;;;;;48.52;8.03;;;;;;;;;;1577066;90;21080;-85
2022/08/20 09:21:32;;;;;;;49.08;7.67;;;;;;;;;;1579083;89;21631;-87
2022/08/20 09:23:58;;;;;;;32.40;7.28;;;;;;;;;;1624401;87;20935;-85
2022/08/20 09:26:24;;;;;;;55.52;8.55;;;;;;;;;;1630470;86;20927;-86
2022/08/20 09:29:14;;;;;;;;;;;;;;;;;;;;;
2022/08/20 09:31:29;;;;;;;50.90;8.55;;;;;;;;;;1586821;89;21063;-86
2022/08/20 09:33:55;;;;;;;56.30;8.70;;;;;;;;;;1587486;90;20992;-87
2022/08/20 09:36:21;;;;;;;38.60;7.60;;;;;;;;;;1587375;90;20944;-86
2022/08/20 09:38:47;;;;;;;57.88;7.90;;;;;;;;;;1587067;90;21648;-87
2022/08/20 09:41:13;;;;;;;52.23;8.68;;;;;;;;;;1584575;90;20938;-87
2022/08/20 09:43:40;;;;;;;45.58;7.65;;;;;;;;;;1585473;90;20982;-87
2022/08/20 09:46:05;;;;;;;42.83;7.87;;;;;;;;;;1585688;90;21105;-86
2022/08/20 09:48:31;;;;;;;39.42;7.65;;;;;;;;;;1574283;89;20947;-88
2022/08/20 09:50:57;;;;;;;33.95;7.80;;;;;;;;;;1586627;89;21717;-86
2022/08/20 09:53:23;;;;;;;42.62;7.42;;;;;;;;;;1607863;89;20951;-86
2022/08/20 09:55:53;;;;;;;39.25;6.97;;;;;;;;;;1607778;88;20893;-88
2022/08/20 09:58:37;;;;;;;44.53;7.37;;;;;;;;;;1607543;88;20941;-88
2022/08/20 10:01:09;;;;;;;34.27;6.87;;;;;;;;;;1607667;87;20994;-87
2022/08/20 10:03:35;;;;;;;31.33;7.12;;;;;;;;;;1608111;89;20902;-92
2022/08/20 10:06:00;;;;;;;32.40;6.30;;;;;;;;;;1602971;87;21077;-89
2022/08/20 10:08:31;;;;;;;42.10;6.53;;;;;;;;;;1618959;85;20916;-91
2022/08/20 10:10:57;;;;;;;31.30;6.03;;;;;;;;;;1682514;84;20948;-90
2022/08/20 10:13:23;;;;;;;44.23;7.35;;;;;;;;;;1675508;84;20909;-90
2022/08/20 10:15:49;;;;;;;42.13;7.40;;;;;;;;;;1678539;84;20973;-87
2022/08/20 10:18:15;;;;;;;44.35;6.25;;;;;;;;;;1676549;84;20982;-91
2022/08/20 10:20:41;;;;;;;41.75;6.58;;;;;;;;;;1683976;84;20974;-91
2022/08/20 10:23:07;;;;;;;43.17;6.20;;;;;;;;;;1676455;84;20962;-92
2022/08/20 10:25:33;;;;;;;36.05;5.83;;;;;;;;;;1679832;84;21031;-89
2022/08/20 10:27:59;;;;;;;35.78;5.33;;;;;;;;;;1686929;84;21638;-90
2022/08/20 10:30:25;;;;;;;38.58;5.92;;;;;;;;;;1685373;83;20984;-91
2022/08/20 10:32:53;;;;;;;36.93;5.62;;;;;;;;;;1661516;85;21482;-86
2022/08/20 10:35:19;;;;;;;39.33;6.40;;;;;;;;;;1603654;88;21543;-87
2022/08/20 10:37:48;;;;;;;24.12;5.60;;;;;;;;;;1588176;87;21705;-87
2022/08/20 10:40:14;;;;;;;43.48;6.15;;;;;;;;;;1592651;89;21009;-88
2022/08/20 10:42:42;;;;;;;33.95;6.12;;;;;;;;;;1603079;89;21038;-88
2022/08/20 10:45:12;;;;;;;33.48;6.25;;;;;;;;;;1603577;89;21030;-88
2022/08/20 10:47:39;;;;;;;26.17;5.70;;;;;;;;;;1603325;89;21014;-88
2022/08/20 10:50:08;;;;;;;40.15;6.78;;;;;;;;;;1603292;89;21621;-87
2022/08/20 10:52:36;;;;;;;39.70;6.08;;;;;;;;;;1599074;89;21008;-86
2022/08/20 10:55:22;;;;;;;26.87;5.90;;;;;;;;;;1596749;88;21011;-88
2022/08/20 10:57:46;;;;;;;42.15;6.15;;;;;;;;;;1578749;89;21064;-87
2022/08/20 11:00:14;;;;;;;27.20;4.90;;;;;;;;;;1550647;89;20925;-88
2022/08/20 11:02:40;;;;;;;29.18;5.30;;;;;;;;;;1567490;91;21033;-89
2022/08/20 11:05:06;;;;;;;29.45;5.17;;;;;;;;;;1546087;92;21064;-90
2022/08/20 11:07:41;;;;;;;27.30;5.72;;;;;;;;;;1557020;90;21035;-88
2022/08/20 11:10:07;;;;;;;38.33;6.28;;;;;;;;;;1515429;94;21415;-90
2022/08/20 11:12:42;;;;;;;33.88;5.30;;;;;;;;;;1516838;93;21919;-90
2022/08/20 11:15:08;;;;;;;33.28;5.60;;;;;;;;;;1429394;100;21158;-90
2022/08/20 11:17:36;;;;;;;35.88;5.03;;;;;;;;;;1429466;100;21126;-89
2022/08/20 11:20:04;;;;;;;21.87;4.47;;;;;;;;;;1421924;100;21118;-86
2022/08/20 11:22:30;;;;;;;28.77;5.65;;;;;;;;;;1427468;100;21138;-86
2022/08/20 11:24:56;;;;;;;40.63;5.50;;;;;;;;;;1430286;100;21697;-85
2022/08/20 11:27:25;;;;;;;33.25;5.53;;;;;;;;;;1427321;100;21056;-86
2022/08/20 11:29:51;;;;;;;38.20;6.53;;;;;;;;;;1429713;99;21105;-88
2022/08/20 11:32:17;;;;;;;41.13;6.70;;;;;;;;;;1418966;100;21556;-88
2022/08/20 11:34:43;;;;;;;33.35;6.15;;;;;;;;;;1436890;99;21038;-87
2022/08/20 11:37:09;;;;;;;33.83;6.72;;;;;;;;;;1435192;99;21059;-88
2022/08/20 11:39:35;;;;;;;38.05;6.45;;;;;;;;;;1426076;100;21069;-84
2022/08/20 11:42:01;;;;;;;46.83;7.50;;;;;;;;;;1426985;100;21050;-84
2022/08/20 11:44:27;;;;;;;39.55;6.60;;;;;;;;;;1427186;100;21004;-89
2022/08/20 11:46:53;;;;;;;31.60;6.33;;;;;;;;;;1428595;98;21080;-82
2022/08/20 11:49:19;;;;;;;40.80;6.55;;;;;;;;;;1434309;98;21019;-84
2022/08/20 11:51:47;;;;;;;40.08;6.80;;;;;;;;;;1451319;96;20960;-86
2022/08/20 11:54:13;;;;;;;45.80;7.00;;;;;;;;;;1495043;96;21470;-85
2022/08/20 11:56:39;;;;;;;42.08;6.17;;;;;;;;;;1482583;96;21014;-86
2022/08/20 11:59:04;;;;;;;50.00;7.10;;;;;;;;;;1471990;96;21002;-86
2022/08/20 12:01:30;;;;;;;33.45;6.97;;;;;;;;;;1472188;96;21026;-87
2022/08/20 12:03:56;;;;;;;38.23;7.15;;;;;;;;;;1461734;96;21036;-86
2022/08/20 12:06:21;;;;;;;38.98;6.20;;;;;;;;;;1474936;93;21017;-86
2022/08/20 12:08:47;;;;;;;50.52;7.17;;;;;;;;;;1529752;93;20987;-87
2022/08/20 12:11:13;;;;;;;39.53;6.10;;;;;;;;;;1554067;88;20963;-87
2022/08/20 12:13:39;;;;;;;41.20;6.85;;;;;;;;;;1638002;87;20901;-87
2022/08/20 12:16:05;;;;;;;44.05;6.83;;;;;;;;;;1639551;87;21003;-83
2022/08/20 12:18:31;;;;;;;31.45;6.30;;;;;;;;;;1639318;87;21003;-88
2022/08/20 12:20:57;;;;;;;41.63;6.22;;;;;;;;;;1639639;87;20913;-86
2022/08/20 12:23:22;;;;;;;42.25;7.20;;;;;;;;;;1639732;87;21673;-85
2022/08/20 12:25:49;;;;;;;37.93;6.72;;;;;;;;;;1639590;87;21776;-86
2022/08/20 12:28:15;;;;;;;27.95;6.30;;;;;;;;;;1627959;87;21015;-84
2022/08/20 12:30:41;;;;;;;37.30;5.90;;;;;;;;;;1633250;86;21736;-88
2022/08/20 12:33:07;;;;;;;42.67;6.20;;;;;;;;;;1624346;88;20999;-88
2022/08/20 12:35:33;;;;;;;40.83;6.80;;;;;;;;;;1571229;90;21004;-84
2022/08/20 12:38:04;;;;;;;38.92;7.65;;;;;;;;;;1619307;87;21026;-87
2022/08/20 12:40:30;;;;;;;27.52;6.87;;;;;;;;;;1625758;88;21551;-88
2022/08/20 12:42:56;;;;;;;42.98;6.53;;;;;;;;;;1622341;88;20947;-88
2022/08/20 12:45:21;;;;;;;29.77;6.45;;;;;;;;;;1622605;88;21390;-86
2022/08/20 12:47:48;;;;;;;50.83;6.87;;;;;;;;;;1621508;88;20956;-84
2022/08/20 12:50:18;;;;;;;33.73;6.05;;;;;;;;;;1625543;88;20877;-84
2022/08/20 12:52:46;;;;;;;33.13;6.28;;;;;;;;;;1544238;92;21657;-82
2022/08/20 12:55:16;;;;;;;46.30;6.75;;;;;;;;;;1547489;91;20998;-84
2022/08/20 12:57:45;;;;;;;48.78;6.58;;;;;;;;;;1543030;91;21047;-86
2022/08/20 13:00:19;;;;;;;44.67;5.90;;;;;;;;;;1531375;93;21080;-86
2022/08/20 13:02:44;;;;;;;32.58;5.70;;;;;;;;;;1516205;94;21499;-84
2022/08/20 13:05:11;;;;;;;34.30;5.45;;;;;;;;;;1516459;93;21084;-85
2022/08/20 13:07:37;;;;;;;29.55;4.92;;;;;;;;;;1516383;94;21053;-86
2022/08/20 13:10:05;;;;;;;39.20;6.08;;;;;;;;;;1516077;94;21103;-86
2022/08/20 13:12:31;;;;;;;43.35;6.45;;;;;;;;;;1516403;94;21050;-87
2022/08/20 13:14:56;;;;;;;40.03;5.85;;;;;;;;;;1516473;94;21031;-85
2022/08/20 13:17:22;;;;;;;35.17;5.40;;;;;;;;;;1516331;94;21040;-86
2022/08/20 13:19:48;;;;;;;30.17;6.42;;;;;;;;;;1516281;94;20966;-87
2022/08/20 13:22:14;;;;;;;36.25;5.85;;;;;;;;;;1516257;94;21053;-85
2022/08/20 13:24:41;;;;;;;37.75;6.97;;;;;;;;;;1516602;94;21058;-85
2022/08/20 13:27:09;;;;;;;43.45;7.08;;;;;;;;;;1509549;94;21627;-85
2022/08/20 13:29:35;;;;;;;42.03;6.70;;;;;;;;;;1499646;95;21532;-88
2022/08/20 13:32:03;;;;;;;50.52;7.37;;;;;;;;;;1514290;92;21736;-84
2022/08/20 13:34:30;;;;;;;45.38;7.17;;;;;;;;;;1521976;93;21542;-84
2022/08/20 13:36:56;;;;;;;53.80;8.28;;;;;;;;;;1511906;93;21039;-86
2022/08/20 13:39:23;;;;;;;40.03;7.30;;;;;;;;;;1521265;93;21055;-82
2022/08/20 13:41:49;;;;;;;39.25;6.85;;;;;;;;;;1535081;93;20961;-84
2022/08/20 13:44:15;;;;;;;45.15;7.72;;;;;;;;;;1568996;91;21037;-83
2022/08/20 13:46:40;;;;;;;44.48;6.37;;;;;;;;;;1546232;92;20936;-83
2022/08/20 13:49:09;;;;;;;37.40;6.33;;;;;;;;;;1585080;89;20957;-84
2022/08/20 13:51:35;;;;;;;43.08;6.53;;;;;;;;;;1606072;89;21067;-83
2022/08/20 13:54:01;;;;;;;39.90;5.92;;;;;;;;;;1601603;88;21022;-86
2022/08/20 13:56:27;;;;;;;34.33;6.25;;;;;;;;;;1604785;87;20948;-82
2022/08/20 13:58:52;;;;;;;34.78;6.33;;;;;;;;;;1670707;84;22666;-86
2022/08/20 14:01:18;;;;;;;38.78;6.90;;;;;;;;;;1671063;84;21689;-86
2022/08/20 14:03:45;;;;;;;44.00;6.28;;;;;;;;;;1656921;84;21010;-85
2022/08/20 14:06:11;;;;;;;41.37;6.28;;;;;;;;;;1658649;86;21022;-87
2022/08/20 14:08:37;;;;;;;37.83;7.15;;;;;;;;;;1665064;85;20930;-84
2022/08/20 14:11:02;;;;;;;46.58;6.22;;;;;;;;;;1631026;86;21007;-86
2022/08/20 14:13:28;;;;;;;32.10;5.72;;;;;;;;;;1659318;85;20911;-84
2022/08/20 14:15:55;;;;;;;50.98;6.62;;;;;;;;;;1664320;85;20942;-84
2022/08/20 14:18:21;;;;;;;42.55;5.83;;;;;;;;;;1653571;85;21015;-82
2022/08/20 14:20:47;;;;;;;53.50;6.47;;;;;;;;;;1665044;85;20972;-85
2022/08/20 14:23:13;;;;;;;33.35;5.72;;;;;;;;;;1653117;84;21665;-84
2022/08/20 14:25:40;;;;;;;44.20;5.47;;;;;;;;;;1651196;86;22591;-81
2022/08/20 14:28:11;;;;;;;42.33;5.67;;;;;;;;;;1658644;86;21000;-84
2022/08/20 14:30:38;;;;;;;39.35;5.97;;;;;;;;;;1629792;87;21527;-85
2022/08/20 14:33:03;;;;;;;38.20;4.80;;;;;;;;;;1625548;87;21009;-84
2022/08/20 14:35:29;;;;;;;41.33;6.12;;;;;;;;;;1635221;86;20971;-84
2022/08/20 14:37:56;;;;;;;40.65;4.87;;;;;;;;;;1666353;86;21037;-86
2022/08/20 14:40:25;;;;;;;30.40;4.80;;;;;;;;;;1669784;86;20971;-87
2022/08/20 14:42:50;;;;;;;33.58;4.45;;;;;;;;;;1669787;86;20995;-84